Time;durP1;ratioP1;P1;durP2;ratioP2;P2;SDS_P1;SDS_P2;PMS_P1;PMS_P2;Temp;Humidity;BMP_temperature;BMP_pressure;BME280_temperature;BME280_humidity;BME280_pressure;Samples;Min_cycle;Max_cycle;Signal;HPM_P1;HPM_P2
2022/08/04 00:01:10;;;;;;;1999.90;999.90;;;26.80;44.80;;;;;;5015369;28;20433;-67
2022/08/04 00:04:03;;;;;;;1999.90;999.90;;;26.80;45.30;;;;;;5015665;28;21099;-68
2022/08/04 00:06:47;;;;;;;1999.90;999.90;;;26.70;45.80;;;;;;5015050;28;20917;-67
2022/08/04 00:09:35;;;;;;;1999.90;999.90;;;26.70;46.20;;;;;;5015096;28;20530;-67
2022/08/04 00:12:01;;;;;;;1999.90;999.90;;;26.70;46.40;;;;;;5014746;28;20419;-67
2022/08/04 00:14:32;;;;;;;1999.90;999.90;;;26.60;46.70;;;;;;5014973;28;20410;-67
2022/08/04 00:16:58;;;;;;;1999.90;999.90;;;26.60;47.20;;;;;;5014818;28;20404;-66
2022/08/04 00:19:28;;;;;;;1999.90;999.90;;;26.60;47.50;;;;;;5015164;28;20414;-67
2022/08/04 00:22:08;;;;;;;1999.90;999.90;;;26.60;47.80;;;;;;5014979;28;20415;-67
2022/08/04 00:24:35;;;;;;;1999.90;999.90;;;26.60;48.20;;;;;;5014840;28;20392;-64
2022/08/04 00:27:01;;;;;;;1999.90;999.90;;;26.50;48.80;;;;;;5014485;28;20437;-64
2022/08/04 00:29:27;;;;;;;1999.90;999.90;;;26.50;49.10;;;;;;5014722;28;20437;-65
2022/08/04 00:31:55;;;;;;;1999.90;999.90;;;26.40;49.80;;;;;;5014751;28;20398;-66
2022/08/04 00:34:24;;;;;;;1999.90;999.90;;;26.10;51.90;;;;;;5014580;28;20503;-66
2022/08/04 00:36:52;;;;;;;1999.90;999.90;;;25.90;54.10;;;;;;5014369;28;20782;-64
2022/08/04 00:39:19;;;;;;;1999.90;999.90;;;25.70;56.60;;;;;;5014712;28;20780;-64
2022/08/04 00:42:09;;;;;;;1999.90;999.90;;;25.70;58.80;;;;;;5014500;28;20413;-66
2022/08/04 00:45:13;;;;;;;1999.90;999.90;;;25.70;60.50;;;;;;5014475;28;20411;-67
2022/08/04 00:48:09;;;;;;;1999.90;999.90;;;25.70;63.70;;;;;;4998837;28;20411;-66
2022/08/04 00:50:42;;;;;;;1999.90;999.90;;;25.70;66.10;;;;;;5014562;28;20988;-65
2022/08/04 00:53:50;;;;;;;1999.90;999.90;;;25.70;67.80;;;;;;5014384;28;20411;-67
2022/08/04 00:56:43;;;;;;;1999.90;999.90;;;25.60;69.70;;;;;;4987440;28;21137;-67
2022/08/04 00:59:17;;;;;;;1999.90;999.90;;;25.60;71.90;;;;;;5014274;28;20503;-67
2022/08/04 01:02:04;;;;;;;1999.90;999.90;;;25.60;73.90;;;;;;5014265;28;20404;-67
2022/08/04 01:04:43;;;;;;;1999.90;999.90;;;25.60;75.60;;;;;;5014200;28;20426;-67
2022/08/04 01:07:36;;;;;;;1999.90;999.90;;;25.50;77.30;;;;;;5014021;28;20399;-67
2022/08/04 01:10:32;;;;;;;1999.90;999.90;;;25.50;79.30;;;;;;5014198;28;20455;-67
2022/08/04 01:13:16;;;;;;;1999.90;999.90;;;25.40;83.10;;;;;;5014157;28;20461;-67
2022/08/04 01:16:06;;;;;;;1999.90;999.90;;;25.40;85.10;;;;;;5013875;28;20936;-66
2022/08/04 01:18:46;;;;;;;1999.90;999.90;;;25.40;89.20;;;;;;5013958;28;20469;-67
2022/08/04 01:21:17;;;;;;;1999.90;999.90;;;25.30;92.50;;;;;;5013859;28;20404;-67
2022/08/04 01:23:55;;;;;;;1999.90;999.90;;;25.20;94.80;;;;;;5013808;28;20759;-67
2022/08/04 01:26:38;;;;;;;1999.90;999.90;;;25.20;97.20;;;;;;5013423;28;20918;-67
2022/08/04 01:29:09;;;;;;;1999.90;999.90;;;25.10;99.70;;;;;;5013842;28;20496;-67
2022/08/04 01:32:00;;;;;;;1999.90;999.90;;;24.90;99.90;;;;;;5013812;28;20396;-67
2022/08/04 01:34:30;;;;;;;1999.90;999.90;;;24.80;99.90;;;;;;5013839;28;20386;-68
2022/08/04 01:37:06;;;;;;;1999.90;999.90;;;24.80;99.90;;;;;;5013306;28;20386;-65
2022/08/04 01:40:00;;;;;;;1999.90;999.90;;;24.70;99.90;;;;;;5013558;28;20407;-66
2022/08/04 01:42:29;;;;;;;1999.90;999.90;;;24.50;99.90;;;;;;5013569;28;20880;-67
2022/08/04 01:44:57;;;;;;;1999.90;999.90;;;24.50;99.90;;;;;;5013322;28;20907;-66
2022/08/04 01:47:27;;;;;;;1999.90;999.90;;;24.50;99.90;;;;;;5013039;28;20419;-65
2022/08/04 01:49:57;;;;;;;1999.90;999.90;;;24.50;99.90;;;;;;5013467;28;20807;-67
2022/08/04 01:52:23;;;;;;;1999.90;999.90;;;24.40;99.90;;;;;;5013441;28;20403;-67
2022/08/04 01:54:50;;;;;;;1999.90;999.90;;;24.40;99.90;;;;;;5013123;28;20426;-67
2022/08/04 01:57:17;;;;;;;1999.90;999.90;;;24.40;99.90;;;;;;5012851;28;20382;-67
2022/08/04 01:59:46;;;;;;;1999.90;999.90;;;24.30;99.90;;;;;;5012804;28;20378;-66
2022/08/04 02:02:11;;;;;;;1999.90;999.90;;;24.40;99.90;;;;;;5013182;28;20913;-67
2022/08/04 02:04:37;;;;;;;1999.90;999.90;;;24.30;99.90;;;;;;5013004;28;20451;-66
2022/08/04 02:07:35;;;;;;;1999.90;999.90;;;24.30;99.90;;;;;;5012778;28;20233;-66
2022/08/04 02:10:17;;;;;;;1999.90;999.90;;;24.30;99.90;;;;;;5013022;28;20207;-67
2022/08/04 02:13:01;;;;;;;1999.90;999.90;;;24.20;99.90;;;;;;5013068;28;20400;-67
2022/08/04 02:15:53;;;;;;;1999.90;999.90;;;24.10;99.90;;;;;;5012830;28;20451;-67
2022/08/04 02:18:26;;;;;;;1999.90;999.90;;;24.00;99.90;;;;;;5012754;28;20782;-68
2022/08/04 02:20:59;;;;;;;1999.90;999.90;;;23.90;99.90;;;;;;5012845;28;20939;-66
2022/08/04 02:23:29;;;;;;;1999.90;999.90;;;23.80;99.90;;;;;;5012845;28;20427;-67
2022/08/04 02:25:58;;;;;;;1999.90;999.90;;;23.80;99.90;;;;;;5012661;28;20495;-67
2022/08/04 02:28:28;;;;;;;1999.90;999.90;;;23.70;99.90;;;;;;5012670;28;20440;-67
2022/08/04 02:31:11;;;;;;;1999.90;999.90;;;23.70;99.90;;;;;;5012649;28;20375;-66
2022/08/04 02:33:41;;;;;;;1999.90;999.90;;;23.70;99.90;;;;;;5012846;28;20407;-67
2022/08/04 02:36:12;;;;;;;1999.90;999.90;;;23.60;99.90;;;;;;5012233;28;20956;-66
2022/08/04 02:38:57;;;;;;;1999.90;999.90;;;23.60;99.90;;;;;;5012648;28;20496;-66
2022/08/04 02:41:25;;;;;;;1999.90;999.90;;;23.60;99.90;;;;;;5012520;28;20408;-66
2022/08/04 02:43:56;;;;;;;1999.90;999.90;;;23.50;99.90;;;;;;5012403;28;20532;-66
2022/08/04 02:46:23;;;;;;;1999.90;999.90;;;23.50;99.90;;;;;;5012233;28;20428;-65
2022/08/04 02:48:51;;;;;;;1999.90;999.90;;;23.40;99.90;;;;;;5012335;28;20458;-66
2022/08/04 02:51:26;;;;;;;1999.90;999.90;;;23.30;99.90;;;;;;5012399;28;20427;-65
2022/08/04 02:53:55;;;;;;;1999.90;999.90;;;23.30;99.90;;;;;;5012274;28;20449;-66
2022/08/04 02:56:22;;;;;;;1999.90;999.90;;;23.20;99.90;;;;;;5011910;28;20441;-66
2022/08/04 02:58:52;;;;;;;1999.90;999.90;;;23.10;99.90;;;;;;5012284;28;20432;-65
2022/08/04 03:01:20;;;;;;;1999.90;999.90;;;23.10;99.90;;;;;;5012339;28;20884;-65
2022/08/04 03:04:01;;;;;;;1999.90;999.90;;;23.10;99.90;;;;;;5012228;28;20389;-65
2022/08/04 03:07:02;;;;;;;1999.90;999.90;;;23.00;99.90;;;;;;5011728;28;20437;-66
2022/08/04 03:09:44;;;;;;;1999.90;999.90;;;23.00;99.90;;;;;;4932352;29;20439;-65
2022/08/04 03:12:31;;;;;;;1999.90;999.90;;;22.90;99.90;;;;;;5008439;28;20441;-65
2022/08/04 03:15:21;;;;;;;1999.90;999.90;;;22.80;99.90;;;;;;5015979;28;20772;-66
2022/08/04 03:18:23;;;;;;;1999.90;999.90;;;22.80;99.90;;;;;;5015808;28;20410;-65
2022/08/04 03:21:10;;;;;;;1999.90;999.90;;;22.70;99.90;;;;;;5016112;28;20449;-66
2022/08/04 03:23:38;;;;;;;1999.90;999.90;;;22.60;99.90;;;;;;5016237;28;20778;-65
2022/08/04 03:26:18;;;;;;;1999.90;999.90;;;22.50;99.90;;;;;;5015617;28;20888;-65
2022/08/04 03:29:05;;;;;;;1999.90;999.90;;;22.60;99.90;;;;;;5015867;28;20520;-66
2022/08/04 03:31:52;;;;;;;1999.90;999.90;;;22.50;99.90;;;;;;5015861;28;20420;-67
2022/08/04 03:34:39;;;;;;;1999.90;999.90;;;22.50;99.90;;;;;;5015855;28;20375;-66
2022/08/04 03:37:35;;;;;;;1999.90;999.90;;;22.60;99.90;;;;;;5015460;28;20392;-65
2022/08/04 03:40:06;;;;;;;1999.90;999.90;;;22.60;99.90;;;;;;5016518;28;20381;-67
2022/08/04 03:42:53;;;;;;;1999.90;999.90;;;22.50;99.90;;;;;;5016387;28;20757;-67
2022/08/04 03:45:40;;;;;;;1999.90;999.90;;;22.50;99.90;;;;;;5016369;28;20464;-66
2022/08/04 03:48:32;;;;;;;1999.90;999.90;;;22.30;99.90;;;;;;5015848;28;20490;-67
2022/08/04 03:55:12;;;;;;;1999.90;999.90;;;22.20;99.90;;;;;;5015825;28;20465;-67
2022/08/04 03:58:02;;;;;;;1999.90;999.90;;;22.20;99.90;;;;;;4935401;29;20413;-66
2022/08/04 04:01:03;;;;;;;1999.90;999.90;;;22.20;99.90;;;;;;4935651;29;20547;-66
2022/08/04 04:04:08;;;;;;;1999.90;999.90;;;22.10;99.90;;;;;;4977630;28;20386;-65
2022/08/04 04:07:07;;;;;;;1999.90;999.90;;;22.10;99.90;;;;;;5014330;28;20534;-64
2022/08/04 04:10:10;;;;;;;1999.90;999.90;;;22.00;99.90;;;;;;5015369;28;20441;-65
2022/08/04 04:12:39;;;;;;;1999.90;999.90;;;22.00;99.90;;;;;;5015202;28;20766;-66
2022/08/04 04:15:16;;;;;;;1999.90;999.90;;;21.90;99.90;;;;;;5014871;28;20417;-66
2022/08/04 04:17:50;;;;;;;1999.90;999.90;;;21.90;99.90;;;;;;5014844;28;20382;-67
2022/08/04 04:20:53;;;;;;;1999.90;999.90;;;21.80;99.90;;;;;;5015233;28;20755;-64
2022/08/04 04:23:49;;;;;;;1999.90;999.90;;;21.80;99.90;;;;;;5014904;28;20407;-64
2022/08/04 04:26:39;;;;;;;1999.90;999.90;;;21.80;99.90;;;;;;5014529;28;20465;-64
2022/08/04 04:29:42;;;;;;;1999.90;999.90;;;21.80;99.90;;;;;;5014776;28;20427;-66
2022/08/04 04:32:30;;;;;;;1999.90;999.90;;;21.80;99.90;;;;;;5014805;28;20860;-65
2022/08/04 04:35:10;;;;;;;1999.90;999.90;;;21.70;99.90;;;;;;5014642;28;20776;-65
2022/08/04 04:38:19;;;;;;;1999.90;999.90;;;21.80;99.90;;;;;;5014587;28;20885;-67
2022/08/04 04:41:18;;;;;;;1999.90;999.90;;;21.80;99.90;;;;;;5015039;28;20454;-68
2022/08/04 04:44:02;;;;;;;1999.90;999.90;;;21.80;99.90;;;;;;5015076;28;20385;-67
2022/08/04 04:47:05;;;;;;;1999.90;999.90;;;21.90;99.90;;;;;;5014530;28;20488;-65
2022/08/04 04:49:36;;;;;;;1999.90;999.90;;;21.90;99.90;;;;;;5014212;28;20876;-65
2022/08/04 04:52:08;;;;;;;1999.90;999.90;;;21.90;99.90;;;;;;5014311;28;20832;-64
2022/08/04 04:54:39;;;;;;;1999.90;999.90;;;21.90;99.90;;;;;;5014281;28;20412;-64
2022/08/04 04:57:22;;;;;;;1999.90;999.90;;;22.00;99.90;;;;;;5013937;28;20451;-65
2022/08/04 04:59:57;;;;;;;1999.90;999.90;;;22.00;99.90;;;;;;5014359;28;20389;-67
2022/08/04 05:02:46;;;;;;;1999.90;999.90;;;22.10;99.90;;;;;;5014579;28;20412;-67
2022/08/04 05:05:42;;;;;;;1999.90;999.90;;;22.20;99.90;;;;;;5014569;28;20421;-67
2022/08/04 05:08:44;;;;;;;1999.90;999.90;;;22.30;99.90;;;;;;5014258;28;20472;-67
2022/08/04 05:11:31;;;;;;;1999.90;999.90;;;22.30;99.90;;;;;;5014558;28;20430;-67
2022/08/04 05:14:19;;;;;;;1999.90;999.90;;;22.40;99.90;;;;;;5014339;28;21025;-67
2022/08/04 05:17:16;;;;;;;1999.90;999.90;;;22.50;99.90;;;;;;5014173;28;20457;-67
2022/08/04 05:19:53;;;;;;;1999.90;999.90;;;22.50;99.90;;;;;;5013801;28;20402;-66
2022/08/04 05:22:27;;;;;;;1999.90;999.90;;;22.70;99.90;;;;;;5013847;28;20410;-67
2022/08/04 05:25:04;;;;;;;1999.90;999.90;;;22.70;99.90;;;;;;5013698;28;20433;-65
2022/08/04 05:27:35;;;;;;;1999.90;999.90;;;22.70;99.90;;;;;;5013531;28;20527;-68
2022/08/04 05:30:04;;;;;;;1999.90;999.90;;;22.70;99.90;;;;;;5013456;28;20462;-68
2022/08/04 05:32:39;;;;;;;1999.90;999.90;;;22.70;99.90;;;;;;5013099;28;20386;-68
2022/08/04 05:35:27;;;;;;;1999.90;999.90;;;22.80;99.90;;;;;;5013421;28;20438;-68
2022/08/04 05:37:55;;;;;;;1999.90;999.90;;;22.90;99.90;;;;;;5000507;28;20428;-68
2022/08/04 05:40:22;;;;;;;1999.90;999.90;;;23.00;99.90;;;;;;5003783;28;20441;-69
2022/08/04 05:42:50;;;;;;;1999.90;999.90;;;23.00;99.90;;;;;;4993787;28;20476;-69
2022/08/04 05:45:16;;;;;;;1999.90;999.90;;;23.00;99.90;;;;;;4993765;28;20491;-69
2022/08/04 05:47:42;;;;;;;1999.90;999.90;;;23.10;99.90;;;;;;4993581;28;20807;-69
2022/08/04 05:50:08;;;;;;;1999.90;999.90;;;23.10;99.90;;;;;;4993678;28;20467;-69
2022/08/04 05:52:36;;;;;;;1999.90;999.90;;;23.10;99.90;;;;;;4993667;28;20382;-69
2022/08/04 05:55:03;;;;;;;1999.90;999.90;;;23.20;99.90;;;;;;4993576;28;20448;-68
2022/08/04 05:57:29;;;;;;;1999.90;999.90;;;23.30;99.90;;;;;;4993242;28;20417;-69
2022/08/04 05:59:58;;;;;;;1999.90;999.90;;;23.40;99.90;;;;;;4993527;28;20417;-69
2022/08/04 06:02:26;;;;;;;1999.90;999.90;;;23.50;99.90;;;;;;4993242;28;20742;-68
2022/08/04 06:04:52;;;;;;;1999.90;999.90;;;23.60;99.90;;;;;;4993449;28;20415;-68
2022/08/04 06:07:18;;;;;;;1999.90;999.90;;;23.70;99.90;;;;;;4993165;28;20409;-69
2022/08/04 06:09:44;;;;;;;1999.90;999.90;;;23.80;99.90;;;;;;4993259;28;20438;-69
2022/08/04 06:12:17;;;;;;;1999.90;999.90;;;23.90;99.90;;;;;;4993579;28;20749;-69
2022/08/04 06:14:45;;;;;;;1999.90;999.90;;;23.90;99.90;;;;;;4993156;28;20205;-69
2022/08/04 06:17:20;;;;;;;1999.90;999.90;;;24.10;99.90;;;;;;4992972;28;20409;-69
2022/08/04 06:19:46;;;;;;;1999.90;999.90;;;24.20;99.90;;;;;;4993282;28;20900;-69
2022/08/04 06:22:14;;;;;;;1999.90;999.90;;;24.30;99.90;;;;;;4993091;28;20399;-69
2022/08/04 06:24:44;;;;;;;1999.90;999.90;;;24.50;99.90;;;;;;4993025;28;20890;-69
2022/08/04 06:27:10;;;;;;;1999.90;999.90;;;24.50;99.90;;;;;;4992784;28;20500;-67
2022/08/04 06:29:40;;;;;;;1999.90;999.90;;;24.60;99.90;;;;;;4993011;28;20547;-67
2022/08/04 06:32:23;;;;;;;1999.90;999.90;;;24.80;99.90;;;;;;4992933;28;20430;-67
2022/08/04 06:35:01;;;;;;;1999.90;999.90;;;24.90;99.90;;;;;;4992920;28;20506;-68
2022/08/04 06:37:27;;;;;;;1999.90;999.90;;;25.10;99.90;;;;;;4992665;28;20479;-66
2022/08/04 06:39:54;;;;;;;1999.90;999.90;;;25.20;99.90;;;;;;4992929;28;20412;-66
2022/08/04 06:42:24;;;;;;;1999.90;999.90;;;25.30;99.90;;;;;;4992850;28;20927;-67
2022/08/04 06:44:55;;;;;;;1999.90;999.90;;;25.40;99.90;;;;;;4992817;28;20436;-66
2022/08/04 06:47:22;;;;;;;1999.90;999.90;;;25.60;99.90;;;;;;4992417;28;20788;-66
2022/08/04 06:49:53;;;;;;;1999.90;999.90;;;25.70;99.90;;;;;;4992674;28;20452;-66
2022/08/04 06:52:19;;;;;;;1999.90;999.90;;;25.90;99.90;;;;;;4992673;28;20423;-67
2022/08/04 06:54:51;;;;;;;1999.90;999.90;;;25.90;99.90;;;;;;4992598;28;20418;-66
2022/08/04 06:57:20;;;;;;;1999.90;999.90;;;26.10;99.90;;;;;;4992366;28;20426;-66
2022/08/04 06:59:54;;;;;;;1999.90;999.90;;;26.20;99.90;;;;;;4992638;28;20409;-65
2022/08/04 07:02:23;;;;;;;1999.90;999.90;;;26.30;99.90;;;;;;4992565;28;20383;-65
2022/08/04 07:04:50;;;;;;;1999.90;999.90;;;26.50;99.90;;;;;;4992593;28;20442;-66
2022/08/04 07:07:17;;;;;;;1999.90;999.90;;;26.60;99.90;;;;;;4992309;28;20413;-68
2022/08/04 07:09:43;;;;;;;1999.90;999.90;;;26.70;99.90;;;;;;4992481;28;20455;-67
2022/08/04 07:12:10;;;;;;;1999.90;999.90;;;26.80;99.90;;;;;;4992504;28;20899;-67
2022/08/04 07:14:38;;;;;;;1999.90;999.90;;;27.00;99.90;;;;;;4992331;28;20176;-66
2022/08/04 07:17:07;;;;;;;1999.90;999.90;;;27.10;99.90;;;;;;4992360;28;20401;-66
2022/08/04 07:19:34;;;;;;;1999.90;999.90;;;27.20;99.90;;;;;;4992472;28;20923;-66
2022/08/04 07:22:01;;;;;;;1999.90;999.90;;;27.20;99.90;;;;;;4992447;28;20428;-64
2022/08/04 07:24:34;;;;;;;1999.90;999.90;;;27.20;99.90;;;;;;4992325;28;20415;-67
2022/08/04 07:27:01;;;;;;;1999.90;999.90;;;27.30;99.90;;;;;;4992602;28;20409;-68
2022/08/04 07:29:27;;;;;;;1999.90;999.90;;;27.40;99.90;;;;;;4992434;28;20459;-66
2022/08/04 07:31:55;;;;;;;1999.90;999.90;;;27.40;99.90;;;;;;4994074;28;20415;-66
2022/08/04 07:34:22;;;;;;;1999.90;999.90;;;27.50;99.90;;;;;;5013832;28;20417;-67
2022/08/04 07:36:50;;;;;;;1999.90;999.90;;;27.50;99.90;;;;;;5012586;28;20438;-68
2022/08/04 07:39:16;;;;;;;1999.90;999.90;;;27.60;99.90;;;;;;5024312;28;20412;-68
2022/08/04 07:41:43;;;;;;;1999.90;999.90;;;27.70;99.90;;;;;;5021451;28;20499;-69
2022/08/04 07:44:11;;;;;;;1999.90;999.90;;;27.80;99.90;;;;;;4998376;28;20184;-69
2022/08/04 07:46:37;;;;;;;1999.90;999.90;;;27.90;99.90;;;;;;5011418;28;20913;-67
2022/08/04 07:49:05;;;;;;;1999.90;999.90;;;28.10;99.90;;;;;;5011596;28;20462;-69
2022/08/04 07:51:31;;;;;;;1999.90;999.90;;;28.20;99.90;;;;;;5011938;28;20418;-70
2022/08/04 07:53:59;;;;;;;1999.90;999.90;;;28.30;99.90;;;;;;5011864;28;20404;-70
2022/08/04 07:56:26;;;;;;;1999.90;999.90;;;28.40;99.90;;;;;;5010687;28;20894;-67
2022/08/04 07:58:52;;;;;;;1999.90;999.90;;;28.50;99.90;;;;;;5013347;28;20412;-68
2022/08/04 08:01:21;;;;;;;1999.90;999.90;;;28.70;99.90;;;;;;5014304;28;20422;-66
2022/08/04 08:03:48;;;;;;;1999.90;999.90;;;28.90;99.90;;;;;;5013957;28;20177;-66
2022/08/04 08:06:14;;;;;;;1999.90;999.90;;;29.00;99.90;;;;;;5013993;28;20527;-65
2022/08/04 08:08:39;;;;;;;1999.90;999.90;;;29.10;99.90;;;;;;5014764;28;20546;-67
2022/08/04 08:11:06;;;;;;;1999.90;999.90;;;29.30;99.90;;;;;;5014938;28;20761;-67
2022/08/04 08:13:33;;;;;;;1999.90;999.90;;;29.40;99.90;;;;;;5014824;28;20228;-65
2022/08/04 08:15:59;;;;;;;1999.90;999.90;;;29.50;99.90;;;;;;5014291;28;20444;-67
2022/08/04 08:18:25;;;;;;;1999.90;999.90;;;29.70;99.90;;;;;;5014731;28;20408;-67
2022/08/04 08:20:52;;;;;;;1999.90;999.90;;;29.90;99.90;;;;;;5014613;28;20435;-66
2022/08/04 08:23:18;;;;;;;1999.90;999.90;;;30.10;99.90;;;;;;5014549;28;20231;-67
2022/08/04 08:25:44;;;;;;;1999.90;999.90;;;30.30;99.90;;;;;;5014202;28;20518;-67
2022/08/04 08:28:10;;;;;;;1999.90;999.90;;;30.50;99.90;;;;;;5014217;28;20415;-70
2022/08/04 08:30:36;;;;;;;1999.90;999.90;;;30.70;99.90;;;;;;5014565;28;20435;-67
2022/08/04 08:33:07;;;;;;;1999.90;999.90;;;30.80;98.60;;;;;;5014457;28;20893;-67
2022/08/04 08:35:55;;;;;;;1999.90;999.90;;;31.10;95.30;;;;;;5014135;28;20416;-67
2022/08/04 08:38:43;;;;;;;1999.90;999.90;;;31.30;94.80;;;;;;5014303;28;20396;-67
2022/08/04 08:41:43;;;;;;;1999.90;999.90;;;31.50;91.80;;;;;;5014353;28;20527;-67
2022/08/04 08:44:33;;;;;;;1999.90;999.90;;;31.70;90.90;;;;;;5013664;28;20838;-66
2022/08/04 08:47:36;;;;;;;1999.90;999.90;;;32.00;83.60;;;;;;5013735;28;20418;-66
2022/08/04 08:50:39;;;;;;;1999.90;999.90;;;32.40;78.10;;;;;;5014010;28;20447;-67
2022/08/04 08:53:23;;;;;;;1999.90;999.90;;;32.70;70.40;;;;;;4959082;28;20457;-66
2022/08/04 08:56:15;;;;;;;1999.90;999.90;;;32.80;69.30;;;;;;4994207;28;20433;-66
2022/08/04 08:59:19;;;;;;;1999.90;999.90;;;32.80;57.60;;;;;;4994465;28;20417;-69
2022/08/04 09:01:59;;;;;;;1999.90;999.90;;;32.90;53.60;;;;;;4994506;28;20411;-69
2022/08/04 09:04:59;;;;;;;1999.90;999.90;;;32.80;53.90;;;;;;4994386;28;20416;-69
2022/08/04 09:08:00;;;;;;;1999.90;999.90;;;32.60;53.90;;;;;;5009939;28;20425;-68
2022/08/04 09:10:35;;;;;;;1999.90;999.90;;;32.50;52.20;;;;;;5008093;28;20476;-69
2022/08/04 09:13:12;;;;;;;1999.90;999.90;;;32.40;51.70;;;;;;4994160;28;20409;-68
2022/08/04 09:15:48;;;;;;;1999.90;999.90;;;32.40;49.40;;;;;;4991364;28;20824;-67
2022/08/04 09:18:33;;;;;;;1999.90;999.90;;;32.50;49.10;;;;;;4993713;28;20494;-68
2022/08/04 09:21:05;;;;;;;1999.90;999.90;;;32.60;48.60;;;;;;4994300;28;20407;-68
2022/08/04 09:23:46;;;;;;;1999.90;999.90;;;32.80;47.60;;;;;;4993913;28;20780;-67
2022/08/04 09:26:20;;;;;;;1999.90;999.90;;;32.90;45.80;;;;;;4976008;28;20495;-67
2022/08/04 09:28:57;;;;;;;1999.90;999.90;;;33.00;44.80;;;;;;4993507;28;20452;-67
2022/08/04 09:31:30;;;;;;;1999.90;999.90;;;33.00;44.40;;;;;;4993205;28;20847;-68
2022/08/04 09:34:14;;;;;;;1999.90;999.90;;;33.20;44.30;;;;;;4994585;28;20432;-67
2022/08/04 09:36:55;;;;;;;1999.90;999.90;;;33.60;42.60;;;;;;4993042;28;20822;-67
2022/08/04 09:39:45;;;;;;;1999.90;999.90;;;33.80;41.20;;;;;;4993432;28;20504;-67
2022/08/04 09:42:31;;;;;;;1999.90;999.90;;;33.90;41.60;;;;;;4993127;28;20408;-67
2022/08/04 09:45:06;;;;;;;1999.90;999.90;;;34.10;38.70;;;;;;4992600;28;21078;-67
2022/08/04 09:47:51;;;;;;;1999.90;999.90;;;34.30;39.30;;;;;;4992632;28;20412;-67
2022/08/04 09:50:39;;;;;;;1999.90;999.90;;;34.60;36.80;;;;;;4993042;28;20539;-67
2022/08/04 09:53:27;;;;;;;1999.90;999.90;;;34.60;37.60;;;;;;4992684;28;20408;-67
2022/08/04 09:56:03;;;;;;;1999.90;999.90;;;34.80;35.50;;;;;;4992841;28;20948;-67
2022/08/04 09:59:06;;;;;;;1999.90;999.90;;;34.80;37.00;;;;;;4992933;28;20441;-68
2022/08/04 10:01:33;;;;;;;1999.90;999.90;;;34.80;36.60;;;;;;4992975;28;20409;-68
2022/08/04 10:04:02;;;;;;;1999.90;999.90;;;34.70;36.30;;;;;;4992851;28;20464;-68
2022/08/04 10:07:04;;;;;;;1999.90;999.90;;;34.70;37.10;;;;;;4991795;28;20469;-69
2022/08/04 10:09:43;;;;;;;1999.90;999.90;;;34.50;35.30;;;;;;4992693;28;20984;-69
2022/08/04 10:12:17;;;;;;;1999.90;999.90;;;34.20;35.30;;;;;;4992799;28;20906;-69
2022/08/04 10:14:57;;;;;;;1999.90;999.90;;;34.10;36.40;;;;;;4992060;28;20945;-68
2022/08/04 10:17:41;;;;;;;1999.90;999.90;;;34.10;33.80;;;;;;4992362;28;20436;-68
2022/08/04 10:20:55;;;;;;;1999.90;999.90;;;34.10;35.00;;;;;;4992330;28;20776;-68
2022/08/04 10:23:32;;;;;;;1999.90;999.90;;;34.10;33.80;;;;;;4979224;28;20515;-66
2022/08/04 10:26:20;;;;;;;1999.90;999.90;;;34.00;33.60;;;;;;4991872;28;20424;-66
2022/08/04 10:29:00;;;;;;;1999.90;999.90;;;34.00;34.60;;;;;;4991895;28;20457;-69
2022/08/04 10:31:34;;;;;;;1999.90;999.90;;;33.90;35.20;;;;;;4992382;28;20480;-66
2022/08/04 10:34:10;;;;;;;1999.90;999.90;;;34.10;35.60;;;;;;4992326;28;20493;-66
2022/08/04 10:36:50;;;;;;;1999.90;999.90;;;34.30;33.10;;;;;;4991506;28;20452;-66
2022/08/04 10:39:23;;;;;;;1999.90;999.90;;;34.20;33.80;;;;;;4992312;28;20470;-66
2022/08/04 10:42:02;;;;;;;1999.90;999.90;;;34.40;32.80;;;;;;4992132;28;20491;-66
2022/08/04 10:44:44;;;;;;;1999.90;999.90;;;34.60;33.70;;;;;;4991738;28;20989;-69
2022/08/04 10:47:21;;;;;;;1999.90;999.90;;;34.70;32.40;;;;;;4991659;28;20488;-68
2022/08/04 10:49:57;;;;;;;1999.90;999.90;;;34.50;31.90;;;;;;4991978;28;20460;-68
2022/08/04 10:52:43;;;;;;;1999.90;999.90;;;34.40;31.60;;;;;;4991568;28;20412;-68
2022/08/04 10:55:17;;;;;;;1999.90;999.90;;;34.30;31.40;;;;;;4991816;28;20814;-68
2022/08/04 10:58:03;;;;;;;1999.90;999.90;;;34.20;30.60;;;;;;4991697;28;20911;-68
2022/08/04 11:00:30;;;;;;;1999.90;999.90;;;34.20;31.20;;;;;;4991552;28;20409;-67
2022/08/04 11:03:07;;;;;;;1999.90;999.90;;;34.30;30.20;;;;;;4991915;28;20412;-68
2022/08/04 11:05:36;;;;;;;1999.90;999.90;;;34.60;32.10;;;;;;4991540;28;20436;-68
2022/08/04 11:08:15;;;;;;;1999.90;999.90;;;34.50;33.30;;;;;;4991643;28;20831;-68
2022/08/04 11:10:54;;;;;;;1999.90;999.90;;;34.10;33.40;;;;;;4991728;28;20903;-68
2022/08/04 11:13:24;;;;;;;1999.90;999.90;;;33.80;34.20;;;;;;4991541;28;20397;-68
2022/08/04 11:15:54;;;;;;;1999.90;999.90;;;33.70;34.20;;;;;;4991533;28;20500;-68
2022/08/04 11:18:57;;;;;;;1999.90;999.90;;;33.70;33.90;;;;;;4990871;28;20551;-68
2022/08/04 11:21:36;;;;;;;1999.90;999.90;;;33.90;33.10;;;;;;4990703;28;20409;-68
2022/08/04 11:24:14;;;;;;;1999.90;999.90;;;33.70;33.60;;;;;;4990925;28;20407;-68
2022/08/04 11:26:57;;;;;;;1999.90;999.90;;;33.70;34.00;;;;;;4990572;28;20837;-69
2022/08/04 11:29:42;;;;;;;1999.90;999.90;;;33.50;34.40;;;;;;4990383;28;20884;-67
2022/08/04 11:32:35;;;;;;;1999.90;999.90;;;32.80;35.60;;;;;;4992883;28;20495;-68
2022/08/04 11:35:05;;;;;;;1999.90;999.90;;;32.30;37.60;;;;;;4966232;28;20441;-68
2022/08/04 11:37:46;;;;;;;1999.90;999.90;;;31.90;39.30;;;;;;4993629;28;20980;-68
2022/08/04 11:40:22;;;;;;;1999.90;999.90;;;31.70;41.30;;;;;;4994249;28;20412;-68
2022/08/04 11:42:56;;;;;;;1999.90;999.90;;;31.60;42.70;;;;;;4993732;28;20413;-68
2022/08/04 11:45:40;;;;;;;1999.90;999.90;;;31.60;44.10;;;;;;4994017;28;20427;-68
2022/08/04 11:48:14;;;;;;;1999.90;999.90;;;31.60;44.70;;;;;;4993726;28;20409;-68
2022/08/04 11:50:48;;;;;;;1999.90;999.90;;;31.50;43.60;;;;;;4993653;28;20416;-68
2022/08/04 11:53:20;;;;;;;1999.90;999.90;;;31.40;45.10;;;;;;4993966;28;20488;-68
2022/08/04 11:55:49;;;;;;;1999.90;999.90;;;31.50;43.80;;;;;;4993909;28;20420;-68
2022/08/04 11:58:15;;;;;;;1999.90;999.90;;;31.70;44.60;;;;;;4993446;28;20951;-68
2022/08/04 12:01:11;;;;;;;1999.90;999.90;;;31.60;43.80;;;;;;4993924;28;20496;-68
2022/08/04 12:03:55;;;;;;;1999.90;999.90;;;31.60;45.30;;;;;;4963479;28;20427;-68
2022/08/04 12:06:44;;;;;;;1999.90;999.90;;;31.70;44.80;;;;;;4992966;28;20758;-68
2022/08/04 12:09:18;;;;;;;1999.90;999.90;;;31.60;44.10;;;;;;4993687;28;21024;-68
2022/08/04 12:12:29;;;;;;;1999.90;999.90;;;31.60;43.70;;;;;;4993876;28;20404;-68
2022/08/04 12:15:11;;;;;;;1999.90;999.90;;;31.70;44.50;;;;;;4944858;28;1109335;-68
2022/08/04 12:17:48;;;;;;;1999.90;999.90;;;31.70;45.10;;;;;;4994663;28;20170;-68
2022/08/04 12:20:20;;;;;;;1999.90;999.90;;;31.60;45.30;;;;;;4994377;28;20444;-68
2022/08/04 12:22:49;;;;;;;1999.90;999.90;;;31.40;46.60;;;;;;4994472;28;20421;-68
2022/08/04 12:25:28;;;;;;;1999.90;999.90;;;31.40;47.50;;;;;;5014202;28;20511;-72
2022/08/04 12:28:10;;;;;;;1999.90;999.90;;;31.50;47.20;;;;;;5013479;28;20890;-70
2022/08/04 12:30:44;;;;;;;1999.90;999.90;;;31.20;46.60;;;;;;5014241;28;20451;-71
2022/08/04 12:33:18;;;;;;;1999.90;999.90;;;31.20;46.50;;;;;;5014668;28;20416;-73
2022/08/04 12:35:57;;;;;;;1999.90;999.90;;;31.50;47.00;;;;;;5014942;28;20422;-72
2022/08/04 12:38:26;;;;;;;1999.90;999.90;;;31.80;46.60;;;;;;5016514;28;20414;-72
2022/08/04 12:40:55;;;;;;;1999.90;999.90;;;32.10;45.20;;;;;;5016423;28;20408;-72
2022/08/04 12:43:54;;;;;;;1999.90;999.90;;;32.40;45.00;;;;;;5016294;28;20408;-72
2022/08/04 12:46:27;;;;;;;1999.90;999.90;;;32.60;43.60;;;;;;4980504;28;20444;-72
2022/08/04 12:49:00;;;;;;;1999.90;999.90;;;33.00;43.00;;;;;;5013612;28;20482;-72
2022/08/04 12:51:27;;;;;;;1999.90;999.90;;;32.70;42.80;;;;;;5013788;28;20916;-70
2022/08/04 12:53:53;;;;;;;1999.90;999.90;;;32.60;43.40;;;;;;5014170;28;20404;-70